Time;durP1;ratioP1;P1;durP2;ratioP2;P2;SDS_P1;SDS_P2;PMS_P1;PMS_P2;Temp;Humidity;BMP_temperature;BMP_pressure;BME280_temperature;BME280_humidity;BME280_pressure;Samples;Min_cycle;Max_cycle;Signal;HPM_P1;HPM_P2
2021/09/27 00:01:07;;;;;;;53.22;30.58;;;;;;;;;;5045274;28;20048;-69
2021/09/27 00:03:33;;;;;;;28.60;25.35;;;;;;;;;;5036749;28;20045;-69
2021/09/27 00:06:00;;;;;;;31.95;28.25;;;;;;;;;;5039926;28;20045;-69
2021/09/27 00:08:26;;;;;;;40.97;29.65;;;;;;;;;;5045594;28;20038;-69
2021/09/27 00:10:57;;;;;;;34.75;26.55;;;;;;;;;;5040610;28;20110;-69
2021/09/27 00:13:24;;;;;;;53.75;30.88;;;;;;;;;;5041765;28;20041;-69
2021/09/27 00:15:52;;;;;;;60.45;34.60;;;;;;;;;;5032888;28;20047;-69
2021/09/27 00:18:18;;;;;;;33.10;26.80;;;;;;;;;;5042233;28;20046;-69
2021/09/27 00:20:46;;;;;;;51.90;32.67;;;;;;;;;;5033850;28;20378;-69
2021/09/27 00:23:13;;;;;;;32.72;26.58;;;;;;;;;;5042778;28;20037;-69
2021/09/27 00:25:39;;;;;;;47.80;32.58;;;;;;;;;;5036366;28;20041;-69
2021/09/27 00:28:06;;;;;;;60.40;34.58;;;;;;;;;;5030900;28;20335;-69
2021/09/27 00:30:32;;;;;;;45.13;31.60;;;;;;;;;;5037440;28;20064;-69
2021/09/27 00:32:58;;;;;;;32.22;26.40;;;;;;;;;;5040275;28;20041;-69
2021/09/27 00:35:26;;;;;;;58.50;35.88;;;;;;;;;;5039273;28;20054;-69
2021/09/27 00:37:52;;;;;;;59.47;39.05;;;;;;;;;;5044417;28;20064;-69
2021/09/27 00:40:20;;;;;;;74.80;37.67;;;;;;;;;;5033452;28;20041;-69
2021/09/27 00:42:47;;;;;;;88.10;36.70;;;;;;;;;;5036319;28;20069;-68
2021/09/27 00:45:14;;;;;;;67.32;38.05;;;;;;;;;;5040346;28;20041;-68
2021/09/27 00:47:40;;;;;;;34.80;28.70;;;;;;;;;;5038321;28;20037;-68
2021/09/27 00:50:07;;;;;;;123.00;42.95;;;;;;;;;;5040623;28;20374;-68
2021/09/27 00:52:33;;;;;;;74.03;37.95;;;;;;;;;;5033016;28;20041;-68
2021/09/27 00:55:00;;;;;;;96.32;36.85;;;;;;;;;;5039112;28;20438;-68
2021/09/27 00:57:27;;;;;;;34.03;26.63;;;;;;;;;;5029042;28;20061;-68
2021/09/27 00:59:54;;;;;;;79.13;38.13;;;;;;;;;;5042662;28;20041;-68
2021/09/27 01:02:20;;;;;;;80.80;39.70;;;;;;;;;;5038680;28;20037;-68
2021/09/27 01:04:46;;;;;;;55.22;34.03;;;;;;;;;;5044308;28;20064;-68
2021/09/27 01:07:32;;;;;;;36.53;28.98;;;;;;;;;;5032478;28;20405;-68
2021/09/27 01:10:14;;;;;;;61.33;36.47;;;;;;;;;;5040994;28;21027;-68
2021/09/27 01:12:51;;;;;;;105.88;40.35;;;;;;;;;;5025300;28;20528;-68
2021/09/27 01:15:23;;;;;;;159.70;47.80;;;;;;;;;;5048575;28;20530;-68
2021/09/27 01:18:00;;;;;;;91.45;40.35;;;;;;;;;;5038236;28;20073;-68
2021/09/27 01:20:40;;;;;;;112.03;42.38;;;;;;;;;;5042006;28;20114;-68
2021/09/27 01:23:18;;;;;;;41.75;29.98;;;;;;;;;;5036396;28;20047;-68
2021/09/27 01:26:03;;;;;;;106.53;43.28;;;;;;;;;;5042729;28;20132;-68
2021/09/27 01:28:37;;;;;;;104.10;43.55;;;;;;;;;;5042622;28;20097;-68
2021/09/27 01:31:03;;;;;;;77.90;37.70;;;;;;;;;;5043978;28;20045;-68
2021/09/27 01:33:29;;;;;;;116.35;41.15;;;;;;;;;;5039953;28;20383;-68
2021/09/27 01:36:06;;;;;;;94.13;41.00;;;;;;;;;;5048337;28;20041;-68
2021/09/27 01:38:47;;;;;;;46.13;31.70;;;;;;;;;;5041384;28;20119;-68
2021/09/27 01:41:19;;;;;;;77.40;35.60;;;;;;;;;;5045840;28;20068;-68
2021/09/27 01:44:02;;;;;;;43.92;29.58;;;;;;;;;;5036207;28;20095;-68
2021/09/27 01:46:40;;;;;;;128.52;42.33;;;;;;;;;;5041365;28;20040;-68
2021/09/27 01:49:15;;;;;;;60.28;35.22;;;;;;;;;;5041195;28;20524;-68
2021/09/27 01:51:50;;;;;;;57.03;34.88;;;;;;;;;;5047273;28;20400;-68
2021/09/27 01:54:26;;;;;;;50.97;31.52;;;;;;;;;;5038825;28;20049;-68
2021/09/27 01:56:58;;;;;;;108.63;40.47;;;;;;;;;;5042973;28;20091;-68
2021/09/27 01:59:32;;;;;;;80.43;36.33;;;;;;;;;;5031088;28;20125;-68
2021/09/27 02:02:07;;;;;;;40.53;28.83;;;;;;;;;;5045045;28;20041;-68
2021/09/27 02:04:45;;;;;;;39.85;28.98;;;;;;;;;;5041377;28;20033;-68
2021/09/27 02:07:12;;;;;;;45.05;30.92;;;;;;;;;;5046784;28;20045;-68
2021/09/27 02:09:47;;;;;;;54.70;31.73;;;;;;;;;;5043847;28;20448;-68
2021/09/27 02:12:13;;;;;;;;;;;;;;;;;;5041538;28;20091;-68
2021/09/27 02:14:43;;;;;;;98.72;40.90;;;;;;;;;;5040239;28;19920;-68
2021/09/27 02:17:16;;;;;;;102.28;41.15;;;;;;;;;;5045933;28;20260;-68
2021/09/27 02:19:48;;;;;;;68.47;35.88;;;;;;;;;;5037324;28;20470;-68
2021/09/27 02:22:38;;;;;;;68.35;37.95;;;;;;;;;;5046913;28;20076;-68
2021/09/27 02:25:16;;;;;;;38.50;27.83;;;;;;;;;;5038448;28;20044;-68
2021/09/27 02:27:43;;;;;;;51.40;31.95;;;;;;;;;;5043105;28;20120;-68
2021/09/27 02:30:10;;;;;;;50.85;33.85;;;;;;;;;;5036240;28;20390;-68
2021/09/27 02:32:38;;;;;;;50.80;35.10;;;;;;;;;;5047998;28;20069;-68
2021/09/27 02:35:13;;;;;;;76.82;41.30;;;;;;;;;;5034215;28;20402;-68
2021/09/27 02:37:45;;;;;;;117.53;44.60;;;;;;;;;;5044595;28;20041;-68
2021/09/27 02:40:11;;;;;;;157.95;50.92;;;;;;;;;;5038869;28;20408;-68
2021/09/27 02:42:41;;;;;;;88.55;43.70;;;;;;;;;;5038386;28;20048;-68
2021/09/27 02:45:08;;;;;;;50.97;34.42;;;;;;;;;;5035070;28;20068;-68
2021/09/27 02:47:37;;;;;;;83.88;41.38;;;;;;;;;;5045440;28;20462;-68
2021/09/27 02:50:03;;;;;;;97.75;43.88;;;;;;;;;;5034881;28;20183;-68
2021/09/27 02:52:30;;;;;;;92.15;44.03;;;;;;;;;;5044697;28;20114;-68
2021/09/27 02:55:02;;;;;;;68.72;38.97;;;;;;;;;;5041471;28;20432;-68
2021/09/27 02:58:04;;;;;;;93.63;41.22;;;;;;;;;;5033094;28;20041;-68
2021/09/27 03:00:36;;;;;;;115.05;43.40;;;;;;;;;;5024825;28;20048;-68
2021/09/27 03:03:13;;;;;;;59.70;34.00;;;;;;;;;;5048400;28;20055;-68
2021/09/27 03:05:45;;;;;;;116.22;46.63;;;;;;;;;;5037949;28;20079;-68
2021/09/27 03:08:30;;;;;;;99.13;43.38;;;;;;;;;;5042795;28;20346;-68
2021/09/27 03:11:14;;;;;;;72.85;39.78;;;;;;;;;;5036126;28;20029;-68
2021/09/27 03:13:40;;;;;;;;;;;;;;;;;;5044661;28;20040;-68
2021/09/27 03:16:09;;;;;;;99.10;42.25;;;;;;;;;;5041498;28;20289;-67
2021/09/27 03:18:35;;;;;;;58.47;36.10;;;;;;;;;;5044739;28;20036;-67
2021/09/27 03:21:01;;;;;;;109.68;46.03;;;;;;;;;;5045606;28;20186;-67
2021/09/27 03:23:35;;;;;;;154.52;48.50;;;;;;;;;;5041833;28;20049;-68
2021/09/27 03:26:07;;;;;;;56.65;36.20;;;;;;;;;;5043318;28;20045;-67
2021/09/27 03:28:52;;;;;;;55.72;36.10;;;;;;;;;;5035332;28;20720;-67
2021/09/27 03:31:36;;;;;;;100.05;43.55;;;;;;;;;;5043709;28;20471;-67
2021/09/27 03:34:09;;;;;;;64.32;35.95;;;;;;;;;;5047505;28;20062;-67
2021/09/27 03:36:57;;;;;;;103.50;42.50;;;;;;;;;;5040152;28;20393;-67
2021/09/27 03:39:29;;;;;;;106.43;44.60;;;;;;;;;;5041429;28;20078;-67
2021/09/27 03:42:01;;;;;;;77.85;39.70;;;;;;;;;;5045728;28;20106;-67
2021/09/27 03:44:37;;;;;;;90.40;43.28;;;;;;;;;;5047433;28;20740;-68
2021/09/27 03:47:12;;;;;;;163.98;50.65;;;;;;;;;;5039711;28;20179;-68
2021/09/27 03:49:47;;;;;;;107.95;45.63;;;;;;;;;;5037943;28;20037;-68
2021/09/27 03:52:17;;;;;;;100.07;41.88;;;;;;;;;;5042796;28;20072;-67
2021/09/27 03:54:51;;;;;;;75.28;42.67;;;;;;;;;;5039914;28;20398;-67
2021/09/27 03:57:28;;;;;;;178.57;53.53;;;;;;;;;;5042051;28;20116;-67
2021/09/27 04:00:00;;;;;;;84.22;41.90;;;;;;;;;;5037533;28;20048;-67
2021/09/27 04:02:35;;;;;;;49.35;33.42;;;;;;;;;;5037731;28;20041;-67
2021/09/27 04:05:13;;;;;;;60.70;37.40;;;;;;;;;;5040497;28;20065;-67
2021/09/27 04:07:39;;;;;;;70.25;40.20;;;;;;;;;;5048273;28;20120;-67
2021/09/27 04:10:05;;;;;;;74.85;41.28;;;;;;;;;;5039696;28;20114;-67
2021/09/27 04:12:42;;;;;;;82.70;40.38;;;;;;;;;;5043798;28;20063;-67
2021/09/27 04:15:12;;;;;;;84.90;43.40;;;;;;;;;;5042478;28;20033;-67
2021/09/27 04:17:50;;;;;;;90.30;43.92;;;;;;;;;;5044283;28;20044;-67
2021/09/27 04:20:34;;;;;;;71.00;39.45;;;;;;;;;;5030868;28;20460;-67
2021/09/27 04:23:05;;;;;;;114.82;44.17;;;;;;;;;;5040589;28;20041;-67
2021/09/27 04:25:37;;;;;;;67.03;39.00;;;;;;;;;;5035524;28;20041;-67
2021/09/27 04:28:03;;;;;;;61.00;37.30;;;;;;;;;;5045001;28;20049;-67
2021/09/27 04:30:48;;;;;;;75.28;39.92;;;;;;;;;;5033706;28;20052;-67
2021/09/27 04:33:14;;;;;;;;;;;;;;;;;;5042693;28;20041;-67
2021/09/27 04:35:57;;;;;;;80.13;40.85;;;;;;;;;;5037261;28;20004;-67
2021/09/27 04:38:23;;;;;;;80.65;40.35;;;;;;;;;;5040956;28;20120;-67
2021/09/27 04:40:58;;;;;;;197.98;55.65;;;;;;;;;;5035394;28;20505;-67
2021/09/27 04:43:31;;;;;;;80.95;39.88;;;;;;;;;;5041748;28;20033;-67
2021/09/27 04:46:08;;;;;;;90.78;42.92;;;;;;;;;;5034540;28;20049;-67
2021/09/27 04:48:57;;;;;;;73.38;41.35;;;;;;;;;;5036275;28;20256;-67
2021/09/27 04:51:30;;;;;;;91.13;44.22;;;;;;;;;;5041197;28;20131;-67
2021/09/27 04:53:59;;;;;;;54.25;34.78;;;;;;;;;;5034973;28;20053;-67
2021/09/27 04:56:51;;;;;;;79.00;41.08;;;;;;;;;;5034240;28;20091;-67
2021/09/27 04:59:23;;;;;;;87.25;40.05;;;;;;;;;;5035860;28;20603;-67
2021/09/27 05:02:04;;;;;;;77.65;42.10;;;;;;;;;;5041804;28;20098;-67
2021/09/27 05:04:42;;;;;;;71.10;38.58;;;;;;;;;;5048485;28;20045;-67
2021/09/27 05:07:33;;;;;;;97.13;42.33;;;;;;;;;;5040841;28;20045;-68
2021/09/27 05:10:05;;;;;;;173.70;53.25;;;;;;;;;;5047300;28;20060;-68
2021/09/27 05:12:34;;;;;;;87.60;44.00;;;;;;;;;;5040254;28;20525;-68
2021/09/27 05:15:00;;;;;;;66.75;40.05;;;;;;;;;;5045403;28;20489;-67
2021/09/27 05:17:29;;;;;;;64.97;38.50;;;;;;;;;;5040267;28;20094;-67
2021/09/27 05:20:05;;;;;;;111.78;47.50;;;;;;;;;;5044993;28;20054;-68
2021/09/27 05:22:38;;;;;;;113.25;46.13;;;;;;;;;;5040728;28;20083;-68
2021/09/27 05:25:24;;;;;;;91.82;44.58;;;;;;;;;;5043535;28;20049;-68
2021/09/27 05:28:09;;;;;;;104.32;44.78;;;;;;;;;;5039008;28;20088;-68
2021/09/27 05:30:54;;;;;;;141.18;51.25;;;;;;;;;;5045867;28;20036;-68
2021/09/27 05:33:34;;;;;;;93.07;43.65;;;;;;;;;;5035787;28;20057;-68
2021/09/27 05:36:27;;;;;;;85.45;40.67;;;;;;;;;;5045630;28;20037;-68
2021/09/27 05:38:53;;;;;;;64.20;37.88;;;;;;;;;;5050067;28;20124;-68
2021/09/27 05:41:19;;;;;;;138.00;48.40;;;;;;;;;;5042961;28;20469;-68
2021/09/27 05:43:48;;;;;;;137.57;48.35;;;;;;;;;;5042012;28;20033;-68
2021/09/27 05:46:34;;;;;;;127.57;47.83;;;;;;;;;;5043004;28;20071;-68
2021/09/27 05:49:04;;;;;;;97.00;45.67;;;;;;;;;;5042364;28;20045;-68
2021/09/27 05:51:33;;;;;;;76.47;42.58;;;;;;;;;;5038747;28;20041;-68
2021/09/27 05:54:22;;;;;;;113.35;48.70;;;;;;;;;;5043097;28;20148;-68
2021/09/27 05:56:57;;;;;;;126.28;50.22;;;;;;;;;;5049585;28;20044;-68
2021/09/27 05:59:30;;;;;;;85.88;45.38;;;;;;;;;;5041529;28;20162;-68
2021/09/27 06:02:15;;;;;;;88.65;43.42;;;;;;;;;;5041486;28;20045;-68
2021/09/27 06:04:59;;;;;;;205.60;58.88;;;;;;;;;;5041677;28;20493;-68
2021/09/27 06:07:44;;;;;;;71.47;41.20;;;;;;;;;;5047532;28;20041;-68
2021/09/27 06:10:10;;;;;;;77.20;41.03;;;;;;;;;;5047272;28;20048;-68
2021/09/27 06:12:45;;;;;;;68.70;39.00;;;;;;;;;;5041669;28;20114;-68
2021/09/27 06:15:12;;;;;;;113.15;45.97;;;;;;;;;;5039799;28;20127;-67
2021/09/27 06:18:07;;;;;;;72.82;42.28;;;;;;;;;;5035854;28;20032;-67
2021/09/27 06:20:47;;;;;;;64.63;37.65;;;;;;;;;;5046038;28;20091;-68
2021/09/27 06:23:28;;;;;;;64.75;37.88;;;;;;;;;;5036669;28;20044;-68
2021/09/27 06:26:06;;;;;;;74.25;38.65;;;;;;;;;;5035915;28;20042;-68
2021/09/27 06:28:40;;;;;;;74.03;40.92;;;;;;;;;;5033705;28;20029;-68
2021/09/27 06:31:18;;;;;;;68.03;38.40;;;;;;;;;;5049345;28;20333;-67
2021/09/27 06:33:52;;;;;;;57.53;36.05;;;;;;;;;;5038902;28;20033;-68
2021/09/27 06:36:21;;;;;;;91.50;40.35;;;;;;;;;;5045008;28;20041;-68
2021/09/27 06:38:51;;;;;;;63.05;37.38;;;;;;;;;;5043883;28;20056;-68
2021/09/27 06:41:19;;;;;;;69.65;37.60;;;;;;;;;;5046622;28;20098;-68
2021/09/27 06:43:46;;;;;;;69.22;38.22;;;;;;;;;;5043622;28;20093;-66
2021/09/27 06:46:12;;;;;;;96.00;42.70;;;;;;;;;;5037861;28;20045;-66
2021/09/27 06:48:38;;;;;;;70.82;39.33;;;;;;;;;;5044479;28;20041;-66
2021/09/27 06:51:05;;;;;;;80.80;41.90;;;;;;;;;;5035671;28;20212;-66
2021/09/27 06:53:31;;;;;;;56.65;35.83;;;;;;;;;;5043565;28;20502;-66
2021/09/27 06:56:00;;;;;;;60.17;35.55;;;;;;;;;;5035314;28;20501;-67
2021/09/27 06:58:26;;;;;;;75.28;39.33;;;;;;;;;;5046096;28;20044;-67
2021/09/27 07:00:53;;;;;;;73.28;38.25;;;;;;;;;;5041755;28;20057;-67
2021/09/27 07:03:20;;;;;;;50.65;33.03;;;;;;;;;;5046217;28;20469;-67
2021/09/27 07:05:46;;;;;;;71.13;38.20;;;;;;;;;;5043219;28;20155;-67
2021/09/27 07:08:12;;;;;;;51.08;32.38;;;;;;;;;;5042669;28;20052;-67
2021/09/27 07:10:39;;;;;;;79.22;39.53;;;;;;;;;;5037388;28;20417;-67
2021/09/27 07:13:05;;;;;;;71.70;37.67;;;;;;;;;;5042319;28;20052;-67
2021/09/27 07:15:31;;;;;;;72.60;38.60;;;;;;;;;;5041501;28;20053;-67
2021/09/27 07:17:57;;;;;;;53.63;34.97;;;;;;;;;;5039066;28;20420;-66
2021/09/27 07:20:25;;;;;;;65.70;36.83;;;;;;;;;;5046620;28;20533;-66
2021/09/27 07:22:51;;;;;;;48.35;33.22;;;;;;;;;;5046434;28;20037;-67
2021/09/27 07:25:18;;;;;;;64.55;36.47;;;;;;;;;;5039105;28;20099;-67
2021/09/27 07:27:44;;;;;;;51.53;32.67;;;;;;;;;;5036422;28;20048;-66
2021/09/27 07:30:11;;;;;;;64.65;37.67;;;;;;;;;;5048688;28;20033;-68
2021/09/27 07:32:38;;;;;;;63.67;36.40;;;;;;;;;;5036471;28;20501;-66
2021/09/27 07:35:04;;;;;;;53.35;33.95;;;;;;;;;;5042696;28;20038;-66
2021/09/27 07:37:30;;;;;;;57.33;35.72;;;;;;;;;;5036468;28;20036;-66
2021/09/27 07:39:56;;;;;;;44.80;31.95;;;;;;;;;;5033005;28;20049;-67
2021/09/27 07:42:22;;;;;;;47.33;33.28;;;;;;;;;;5037994;28;20086;-67
2021/09/27 07:44:49;;;;;;;41.00;29.88;;;;;;;;;;5048881;28;20106;-67
2021/09/27 07:47:15;;;;;;;44.55;31.98;;;;;;;;;;5033136;28;20044;-67
2021/09/27 07:49:41;;;;;;;53.75;34.80;;;;;;;;;;5041690;28;20164;-67
2021/09/27 07:52:07;;;;;;;38.47;30.17;;;;;;;;;;5036284;28;20048;-67
2021/09/27 07:54:33;;;;;;;39.92;29.15;;;;;;;;;;5037136;28;20521;-66
2021/09/27 07:57:00;;;;;;;35.95;27.17;;;;;;;;;;5033569;28;20091;-71
2021/09/27 07:59:26;;;;;;;34.47;28.10;;;;;;;;;;5041775;28;20044;-72
2021/09/27 08:01:52;;;;;;;46.33;31.38;;;;;;;;;;5042291;28;20059;-71
2021/09/27 08:04:19;;;;;;;30.42;26.08;;;;;;;;;;5037691;28;20061;-72
2021/09/27 08:06:46;;;;;;;30.40;25.40;;;;;;;;;;5042600;28;20494;-68
2021/09/27 08:09:12;;;;;;;34.72;29.00;;;;;;;;;;5036706;28;20413;-68
2021/09/27 08:11:43;;;;;;;28.70;25.48;;;;;;;;;;5047087;28;20045;-68
2021/09/27 08:14:10;;;;;;;26.80;24.17;;;;;;;;;;5039722;28;20041;-68
2021/09/27 08:16:36;;;;;;;25.30;22.67;;;;;;;;;;5044167;28;20354;-68
2021/09/27 08:19:02;;;;;;;22.70;20.60;;;;;;;;;;5036846;28;20130;-68
2021/09/27 08:21:29;;;;;;;21.52;19.40;;;;;;;;;;5044198;28;20029;-68
2021/09/27 08:23:55;;;;;;;21.77;19.38;;;;;;;;;;5037745;28;20056;-68
2021/09/27 08:26:24;;;;;;;19.25;17.35;;;;;;;;;;5045471;28;20049;-69
2021/09/27 08:28:50;;;;;;;20.75;18.65;;;;;;;;;;5038909;28;20052;-69
2021/09/27 08:31:19;;;;;;;20.88;18.92;;;;;;;;;;5040820;28;20094;-69
2021/09/27 08:33:46;;;;;;;20.35;17.42;;;;;;;;;;5036324;28;20037;-68
2021/09/27 08:36:14;;;;;;;21.30;19.25;;;;;;;;;;5050886;28;20048;-68
2021/09/27 08:38:41;;;;;;;19.85;17.73;;;;;;;;;;5043265;28;20106;-68
2021/09/27 08:41:19;;;;;;;19.83;17.85;;;;;;;;;;5039876;28;20053;-69
2021/09/27 08:43:51;;;;;;;18.80;17.00;;;;;;;;;;5038104;28;20045;-69
2021/09/27 08:46:37;;;;;;;20.55;18.40;;;;;;;;;;5045890;28;20045;-69
2021/09/27 08:49:16;;;;;;;19.05;17.15;;;;;;;;;;5037856;28;20037;-69
2021/09/27 08:51:42;;;;;;;18.90;17.08;;;;;;;;;;5043815;28;20047;-69
2021/09/27 08:54:13;;;;;;;18.75;17.00;;;;;;;;;;5042995;28;20401;-69
2021/09/27 08:56:44;;;;;;;18.23;16.58;;;;;;;;;;5044226;28;20052;-68
2021/09/27 08:59:14;;;;;;;18.27;16.67;;;;;;;;;;5047458;28;20048;-67
2021/09/27 09:01:42;;;;;;;19.52;17.52;;;;;;;;;;5046183;28;20063;-68
2021/09/27 09:04:18;;;;;;;17.77;16.08;;;;;;;;;;5047954;28;20034;-67
2021/09/27 09:06:50;;;;;;;17.85;15.95;;;;;;;;;;5046036;28;20566;-68
2021/09/27 09:09:18;;;;;;;17.95;16.08;;;;;;;;;;5049013;28;20072;-68
2021/09/27 09:11:49;;;;;;;17.33;15.50;;;;;;;;;;5041369;28;20029;-68
2021/09/27 09:14:25;;;;;;;18.40;16.58;;;;;;;;;;5049028;28;20375;-69
2021/09/27 09:16:52;;;;;;;16.73;15.13;;;;;;;;;;5044205;28;20067;-67
2021/09/27 09:19:21;;;;;;;16.67;15.18;;;;;;;;;;5045578;28;20045;-68
2021/09/27 09:21:51;;;;;;;16.88;15.30;;;;;;;;;;5040840;28;20044;-68
2021/09/27 09:24:20;;;;;;;16.15;14.57;;;;;;;;;;5043533;28;20106;-68
2021/09/27 09:26:49;;;;;;;16.45;14.77;;;;;;;;;;5038900;28;20036;-68
2021/09/27 09:29:19;;;;;;;15.20;13.68;;;;;;;;;;5040165;28;20045;-69
2021/09/27 09:31:46;;;;;;;14.15;12.77;;;;;;;;;;5034675;28;20124;-69
2021/09/27 09:34:19;;;;;;;14.90;13.32;;;;;;;;;;5049835;28;20033;-69
2021/09/27 09:36:46;;;;;;;14.43;12.93;;;;;;;;;;5039162;28;20175;-69
2021/09/27 09:39:18;;;;;;;13.75;12.43;;;;;;;;;;5042254;28;20100;-69
2021/09/27 09:41:49;;;;;;;14.68;13.18;;;;;;;;;;5039805;28;20032;-69
2021/09/27 09:44:20;;;;;;;16.35;13.63;;;;;;;;;;5047860;28;20033;-69
2021/09/27 09:46:57;;;;;;;13.23;12.02;;;;;;;;;;5043357;28;20512;-69
2021/09/27 09:49:23;;;;;;;13.60;12.23;;;;;;;;;;5044979;28;20558;-68
2021/09/27 09:51:59;;;;;;;13.13;11.75;;;;;;;;;;5043872;28;20388;-69
2021/09/27 09:54:27;;;;;;;14.35;12.90;;;;;;;;;;5041272;28;20140;-68
2021/09/27 09:57:06;;;;;;;14.32;12.23;;;;;;;;;;5036687;28;20045;-68
2021/09/27 09:59:36;;;;;;;13.48;12.05;;;;;;;;;;5043419;28;20037;-68
2021/09/27 10:02:07;;;;;;;13.32;12.05;;;;;;;;;;5043478;28;23437;-68
2021/09/27 10:04:42;;;;;;;12.90;11.60;;;;;;;;;;5049530;28;20053;-68
2021/09/27 10:07:13;;;;;;;14.18;12.65;;;;;;;;;;5035854;28;21299;-68
2021/09/27 10:09:57;;;;;;;13.07;11.77;;;;;;;;;;5044947;28;20387;-68
2021/09/27 10:12:56;;;;;;;13.05;11.73;;;;;;;;;;5036223;28;20472;-68
2021/09/27 10:15:34;;;;;;;12.93;11.57;;;;;;;;;;5025471;28;20121;-68
2021/09/27 10:18:00;;;;;;;12.70;11.45;;;;;;;;;;5040067;28;20046;-68
2021/09/27 10:20:32;;;;;;;11.63;10.60;;;;;;;;;;5045814;28;20040;-68
2021/09/27 10:23:01;;;;;;;12.85;10.05;;;;;;;;;;5039859;28;20139;-67
2021/09/27 10:25:40;;;;;;;11.40;10.30;;;;;;;;;;5047225;28;20041;-67
2021/09/27 10:28:09;;;;;;;12.80;9.98;;;;;;;;;;5040310;28;20090;-68
2021/09/27 10:30:46;;;;;;;11.52;10.18;;;;;;;;;;5044112;28;20041;-68
2021/09/27 10:33:18;;;;;;;11.32;9.23;;;;;;;;;;5038981;28;20379;-68
2021/09/27 10:35:54;;;;;;;9.93;9.02;;;;;;;;;;5041933;28;20060;-69
2021/09/27 10:38:23;;;;;;;9.50;8.60;;;;;;;;;;5038920;28;23639;-68
2021/09/27 10:40:50;;;;;;;9.18;8.38;;;;;;;;;;5043109;28;20119;-68
2021/09/27 10:43:18;;;;;;;9.77;7.82;;;;;;;;;;5040795;28;20040;-68
2021/09/27 10:45:47;;;;;;;9.00;7.63;;;;;;;;;;5050922;28;20049;-68
2021/09/27 10:48:13;;;;;;;8.43;7.63;;;;;;;;;;5046022;28;20109;-68
2021/09/27 10:50:39;;;;;;;8.30;7.43;;;;;;;;;;5036804;28;20069;-68
2021/09/27 10:53:14;;;;;;;8.50;7.22;;;;;;;;;;5044098;28;20122;-69
2021/09/27 10:55:46;;;;;;;8.05;7.35;;;;;;;;;;5041486;28;20519;-68
2021/09/27 10:58:23;;;;;;;9.00;7.60;;;;;;;;;;5040023;28;20033;-68
2021/09/27 11:00:51;;;;;;;7.70;6.65;;;;;;;;;;5039026;28;20057;-68
2021/09/27 11:03:26;;;;;;;8.57;6.38;;;;;;;;;;5047290;28;20038;-68
2021/09/27 11:05:55;;;;;;;8.18;7.00;;;;;;;;;;5041337;28;20048;-68
2021/09/27 11:08:37;;;;;;;7.40;6.65;;;;;;;;;;5043279;28;20072;-69
2021/09/27 11:11:15;;;;;;;7.70;6.63;;;;;;;;;;5034536;28;20119;-69
2021/09/27 11:13:42;;;;;;;7.05;6.35;;;;;;;;;;5045955;28;20138;-69
2021/09/27 11:16:12;;;;;;;8.07;6.60;;;;;;;;;;5038241;28;20487;-69
2021/09/27 11:18:39;;;;;;;6.85;6.15;;;;;;;;;;5040171;28;20140;-69
2021/09/27 11:21:20;;;;;;;8.02;6.38;;;;;;;;;;5037349;28;20049;-69
2021/09/27 11:23:49;;;;;;;9.07;6.50;;;;;;;;;;5042810;28;20037;-69
2021/09/27 11:26:15;;;;;;;6.68;5.97;;;;;;;;;;5038739;28;20053;-69
2021/09/27 11:28:47;;;;;;;8.77;6.85;;;;;;;;;;5045294;28;20052;-69
2021/09/27 11:31:16;;;;;;;7.63;6.30;;;;;;;;;;5040647;28;20044;-70
2021/09/27 11:33:42;;;;;;;7.68;6.05;;;;;;;;;;5046046;28;20041;-70
2021/09/27 11:36:24;;;;;;;6.63;5.97;;;;;;;;;;5031132;28;20057;-70
2021/09/27 11:38:53;;;;;;;6.90;5.43;;;;;;;;;;5041937;28;20056;-70
2021/09/27 11:41:19;;;;;;;8.45;6.43;;;;;;;;;;5037401;28;20401;-71
2021/09/27 11:43:48;;;;;;;6.55;5.18;;;;;;;;;;5046196;28;20037;-71
2021/09/27 11:46:21;;;;;;;6.07;5.03;;;;;;;;;;5029871;28;20069;-71
2021/09/27 11:48:54;;;;;;;6.25;4.88;;;;;;;;;;5038555;28;20096;-71
2021/09/27 11:51:22;;;;;;;5.93;5.27;;;;;;;;;;5038903;28;20041;-71
2021/09/27 11:53:48;;;;;;;5.80;5.10;;;;;;;;;;5045747;28;20584;-71
2021/09/27 11:56:30;;;;;;;6.72;5.93;;;;;;;;;;5032396;28;20506;-71
2021/09/27 11:58:56;;;;;;;8.35;5.78;;;;;;;;;;5042918;28;20029;-71
2021/09/27 12:01:33;;;;;;;7.05;6.28;;;;;;;;;;5039237;28;20098;-71
2021/09/27 12:04:02;;;;;;;6.63;5.95;;;;;;;;;;5046869;28;20044;-70
2021/09/27 12:06:41;;;;;;;8.35;6.35;;;;;;;;;;5033613;28;20055;-71
2021/09/27 12:09:11;;;;;;;7.95;6.70;;;;;;;;;;5036043;28;20093;-71
2021/09/27 12:11:46;;;;;;;7.13;5.95;;;;;;;;;;5041526;28;20040;-71
2021/09/27 12:14:18;;;;;;;8.18;6.28;;;;;;;;;;5046397;28;20037;-71
2021/09/27 12:16:47;;;;;;;10.48;6.60;;;;;;;;;;5044522;28;20037;-71
2021/09/27 12:19:16;;;;;;;6.57;5.88;;;;;;;;;;5018793;28;20052;-71
2021/09/27 12:21:48;;;;;;;7.75;6.50;;;;;;;;;;5041443;28;20040;-72
2021/09/27 12:24:22;;;;;;;8.52;6.80;;;;;;;;;;5021162;28;20489;-71
2021/09/27 12:26:52;;;;;;;9.20;6.75;;;;;;;;;;5041550;28;20473;-71
2021/09/27 12:29:20;;;;;;;9.10;6.88;;;;;;;;;;5032841;28;20520;-70
2021/09/27 12:32:00;;;;;;;7.60;6.68;;;;;;;;;;5042468;28;20049;-72
2021/09/27 12:34:27;;;;;;;9.07;6.47;;;;;;;;;;5034586;28;20057;-71
2021/09/27 12:36:53;;;;;;;10.25;6.88;;;;;;;;;;5037341;28;20129;-71
2021/09/27 12:39:21;;;;;;;7.72;6.63;;;;;;;;;;5035359;28;20044;-72
2021/09/27 12:41:47;;;;;;;9.85;5.90;;;;;;;;;;5042901;28;20037;-71
2021/09/27 12:44:15;;;;;;;10.40;6.78;;;;;;;;;;5038359;28;20044;-72
2021/09/27 12:46:43;;;;;;;7.53;5.85;;;;;;;;;;5038193;28;20053;-72
2021/09/27 12:49:10;;;;;;;8.20;6.15;;;;;;;;;;5035377;28;20045;-72
2021/09/27 12:51:45;;;;;;;6.80;5.13;;;;;;;;;;5045138;28;20452;-71
2021/09/27 12:54:29;;;;;;;6.53;5.55;;;;;;;;;;5029494;28;20497;-72
2021/09/27 12:56:57;;;;;;;8.88;5.40;;;;;;;;;;5038865;28;20057;-72
2021/09/27 12:59:26;;;;;;;6.25;5.07;;;;;;;;;;5037319;28;20497;-70
2021/09/27 13:02:00;;;;;;;6.63;4.95;;;;;;;;;;5045619;28;20053;-71
2021/09/27 13:04:31;;;;;;;11.75;4.65;;;;;;;;;;5033705;28;20103;-71
2021/09/27 13:07:06;;;;;;;7.65;4.47;;;;;;;;;;5027395;28;20129;-71
2021/09/27 13:09:39;;;;;;;9.07;5.05;;;;;;;;;;5039291;28;20041;-71
2021/09/27 13:12:10;;;;;;;9.40;5.07;;;;;;;;;;5023463;28;20049;-71
2021/09/27 13:14:39;;;;;;;8.15;6.18;;;;;;;;;;5034784;28;20044;-71
2021/09/27 13:17:23;;;;;;;9.98;6.47;;;;;;;;;;5026725;28;20130;-71
2021/09/27 13:19:54;;;;;;;13.00;6.78;;;;;;;;;;5019018;28;20514;-71
2021/09/27 13:22:25;;;;;;;9.45;7.38;;;;;;;;;;5038188;28;20366;-71
2021/09/27 13:24:54;;;;;;;9.77;7.55;;;;;;;;;;5037712;28;20052;-72
2021/09/27 13:27:23;;;;;;;9.05;6.75;;;;;;;;;;5045011;28;20041;-71
2021/09/27 13:29:50;;;;;;;7.63;6.18;;;;;;;;;;5040766;28;20091;-72
2021/09/27 13:32:24;;;;;;;7.47;4.80;;;;;;;;;;5038926;28;20103;-72
2021/09/27 13:35:09;;;;;;;7.35;5.90;;;;;;;;;;5041165;28;20159;-72
2021/09/27 13:37:41;;;;;;;6.45;5.85;;;;;;;;;;5023813;28;20049;-70
2021/09/27 13:40:28;;;;;;;6.90;5.63;;;;;;;;;;5040832;28;20033;-71
2021/09/27 13:43:13;;;;;;;11.38;5.53;;;;;;;;;;5044814;28;20099;-71
2021/09/27 13:45:40;;;;;;;8.32;6.25;;;;;;;;;;5034478;28;20388;-68
2021/09/27 13:48:06;;;;;;;13.75;7.55;;;;;;;;;;5045112;28;20041;-73
2021/09/27 13:50:32;;;;;;;7.60;6.32;;;;;;;;;;5039777;28;20045;-72
2021/09/27 13:53:06;;;;;;;8.65;6.35;;;;;;;;;;5018791;28;20041;-73
2021/09/27 13:55:33;;;;;;;6.53;5.25;;;;;;;;;;5038720;28;20405;-73
2021/09/27 13:57:59;;;;;;;5.95;5.22;;;;;;;;;;5016969;28;20044;-68
2021/09/27 14:00:25;;;;;;;6.03;5.20;;;;;;;;;;5046241;28;20052;-68
2021/09/27 14:02:51;;;;;;;11.25;5.07;;;;;;;;;;5037426;28;20101;-68
2021/09/27 14:05:17;;;;;;;7.57;5.82;;;;;;;;;;5045180;28;20052;-68
2021/09/27 14:07:44;;;;;;;7.13;5.50;;;;;;;;;;5039085;28;20037;-71
2021/09/27 14:10:11;;;;;;;6.95;5.50;;;;;;;;;;5028068;28;20489;-73
2021/09/27 14:12:37;;;;;;;7.15;5.03;;;;;;;;;;5036523;28;20044;-74
2021/09/27 14:15:05;;;;;;;8.50;5.47;;;;;;;;;;5043218;28;20052;-74
2021/09/27 14:17:31;;;;;;;8.48;5.20;;;;;;;;;;5041232;28;20060;-74
2021/09/27 14:19:57;;;;;;;11.43;5.45;;;;;;;;;;5039818;28;20370;-74
2021/09/27 14:22:24;;;;;;;7.72;5.82;;;;;;;;;;5034407;28;20079;-74
2021/09/27 14:24:50;;;;;;;9.55;4.97;;;;;;;;;;5029316;28;20460;-73
2021/09/27 14:27:16;;;;;;;6.60;5.25;;;;;;;;;;5033720;28;20052;-74
2021/09/27 14:29:43;;;;;;;6.97;5.20;;;;;;;;;;5046243;28;20072;-74
2021/09/27 14:32:09;;;;;;;5.63;4.53;;;;;;;;;;5024188;28;20060;-74
2021/09/27 14:34:35;;;;;;;7.95;4.43;;;;;;;;;;5045435;28;20447;-74
2021/09/27 14:37:01;;;;;;;9.00;4.80;;;;;;;;;;5027245;28;20068;-74
2021/09/27 14:39:28;;;;;;;7.78;4.05;;;;;;;;;;5035451;28;20037;-74
2021/09/27 14:41:54;;;;;;;5.35;3.83;;;;;;;;;;5041517;28;20033;-74
2021/09/27 14:44:20;;;;;;;5.20;3.95;;;;;;;;;;5036303;28;20366;-74
2021/09/27 14:46:46;;;;;;;6.18;3.67;;;;;;;;;;5023278;28;20041;-74
2021/09/27 14:49:13;;;;;;;4.63;3.42;;;;;;;;;;5038455;28;20041;-74